sensor_id;sensor_type;location;lat;lon;timestamp;P1;durP1;ratioP1;P2;durP2;ratioP2
13374;SDS011;6756;51.354;15.754;2022-09-02T00:01:46;1.10;;;0.83;;
13374;SDS011;6756;51.354;15.754;2022-09-02T00:05:47;1.20;;;1.00;;
13374;SDS011;6756;51.354;15.754;2022-09-02T00:09:48;1.17;;;1.00;;
13374;SDS011;6756;51.354;15.754;2022-09-02T00:13:50;1.37;;;1.13;;
13374;SDS011;6756;51.354;15.754;2022-09-02T00:17:51;1.60;;;0.80;;
13374;SDS011;6756;51.354;15.754;2022-09-02T00:21:52;1.10;;;1.00;;
13374;SDS011;6756;51.354;15.754;2022-09-02T00:25:54;1.00;;;0.80;;
13374;SDS011;6756;51.354;15.754;2022-09-02T00:29:55;1.50;;;1.17;;
13374;SDS011;6756;51.354;15.754;2022-09-02T00:33:56;1.13;;;1.03;;
13374;SDS011;6756;51.354;15.754;2022-09-02T00:37:57;1.60;;;1.07;;
13374;SDS011;6756;51.354;15.754;2022-09-02T00:41:58;1.20;;;1.10;;
13374;SDS011;6756;51.354;15.754;2022-09-02T00:46:00;1.60;;;1.30;;
13374;SDS011;6756;51.354;15.754;2022-09-02T00:50:03;2.10;;;1.43;;
13374;SDS011;6756;51.354;15.754;2022-09-02T00:54:06;1.93;;;1.20;;
13374;SDS011;6756;51.354;15.754;2022-09-02T00:58:09;1.17;;;1.03;;
13374;SDS011;6756;51.354;15.754;2022-09-02T01:02:16;1.20;;;1.10;;
13374;SDS011;6756;51.354;15.754;2022-09-02T01:06:19;2.53;;;1.07;;
13374;SDS011;6756;51.354;15.754;2022-09-02T01:10:30;1.60;;;1.30;;
13374;SDS011;6756;51.354;15.754;2022-09-02T01:14:35;2.77;;;1.27;;
13374;SDS011;6756;51.354;15.754;2022-09-02T01:18:36;1.27;;;1.07;;
13374;SDS011;6756;51.354;15.754;2022-09-02T01:22:38;2.53;;;1.73;;
13374;SDS011;6756;51.354;15.754;2022-09-02T01:26:41;1.73;;;1.10;;
13374;SDS011;6756;51.354;15.754;2022-09-02T01:30:45;1.73;;;1.33;;
13374;SDS011;6756;51.354;15.754;2022-09-02T01:34:49;1.90;;;1.20;;
13374;SDS011;6756;51.354;15.754;2022-09-02T01:38:50;1.40;;;1.10;;
13374;SDS011;6756;51.354;15.754;2022-09-02T01:42:59;2.60;;;1.30;;
13374;SDS011;6756;51.354;15.754;2022-09-02T01:47:05;1.17;;;1.07;;
13374;SDS011;6756;51.354;15.754;2022-09-02T01:51:07;1.17;;;1.07;;
13374;SDS011;6756;51.354;15.754;2022-09-02T01:55:07;2.83;;;1.30;;
13374;SDS011;6756;51.354;15.754;2022-09-02T01:59:09;2.07;;;1.70;;
13374;SDS011;6756;51.354;15.754;2022-09-02T02:03:16;2.57;;;1.60;;
13374;SDS011;6756;51.354;15.754;2022-09-02T02:07:18;2.00;;;1.20;;
13374;SDS011;6756;51.354;15.754;2022-09-02T02:11:22;2.70;;;1.20;;
13374;SDS011;6756;51.354;15.754;2022-09-02T02:15:24;1.87;;;1.20;;
13374;SDS011;6756;51.354;15.754;2022-09-02T02:19:25;1.47;;;1.13;;
13374;SDS011;6756;51.354;15.754;2022-09-02T02:23:27;2.47;;;1.50;;
13374;SDS011;6756;51.354;15.754;2022-09-02T02:27:27;3.63;;;1.50;;
13374;SDS011;6756;51.354;15.754;2022-09-02T02:31:28;2.27;;;1.70;;
13374;SDS011;6756;51.354;15.754;2022-09-02T02:35:29;2.90;;;1.50;;
13374;SDS011;6756;51.354;15.754;2022-09-02T02:39:30;1.73;;;1.27;;
13374;SDS011;6756;51.354;15.754;2022-09-02T02:43:32;1.70;;;1.40;;
13374;SDS011;6756;51.354;15.754;2022-09-02T02:47:34;1.97;;;1.23;;
13374;SDS011;6756;51.354;15.754;2022-09-02T02:51:38;1.83;;;1.33;;
13374;SDS011;6756;51.354;15.754;2022-09-02T02:55:39;2.60;;;1.53;;
13374;SDS011;6756;51.354;15.754;2022-09-02T02:59:40;2.40;;;1.20;;
13374;SDS011;6756;51.354;15.754;2022-09-02T03:03:41;2.73;;;1.60;;
13374;SDS011;6756;51.354;15.754;2022-09-02T03:07:43;1.60;;;1.27;;
13374;SDS011;6756;51.354;15.754;2022-09-02T03:11:44;1.23;;;1.13;;
13374;SDS011;6756;51.354;15.754;2022-09-02T03:15:46;1.50;;;1.40;;
13374;SDS011;6756;51.354;15.754;2022-09-02T03:19:47;1.67;;;1.20;;
13374;SDS011;6756;51.354;15.754;2022-09-02T03:23:49;2.00;;;1.50;;
13374;SDS011;6756;51.354;15.754;2022-09-02T03:27:50;2.07;;;1.60;;
13374;SDS011;6756;51.354;15.754;2022-09-02T03:31:51;1.80;;;1.37;;
13374;SDS011;6756;51.354;15.754;2022-09-02T03:35:52;3.00;;;1.30;;
13374;SDS011;6756;51.354;15.754;2022-09-02T03:39:53;2.20;;;1.60;;
13374;SDS011;6756;51.354;15.754;2022-09-02T03:43:54;2.03;;;1.63;;
13374;SDS011;6756;51.354;15.754;2022-09-02T03:47:55;1.50;;;1.40;;
13374;SDS011;6756;51.354;15.754;2022-09-02T03:51:56;1.57;;;1.47;;
13374;SDS011;6756;51.354;15.754;2022-09-02T03:56:02;2.97;;;1.80;;
13374;SDS011;6756;51.354;15.754;2022-09-02T04:00:12;4.43;;;1.80;;
13374;SDS011;6756;51.354;15.754;2022-09-02T04:04:14;2.77;;;1.87;;
13374;SDS011;6756;51.354;15.754;2022-09-02T04:08:15;2.33;;;1.77;;
13374;SDS011;6756;51.354;15.754;2022-09-02T04:12:17;1.53;;;1.43;;
13374;SDS011;6756;51.354;15.754;2022-09-02T04:16:21;1.97;;;1.77;;
13374;SDS011;6756;51.354;15.754;2022-09-02T04:20:27;1.83;;;1.60;;
13374;SDS011;6756;51.354;15.754;2022-09-02T04:24:28;2.10;;;1.90;;
13374;SDS011;6756;51.354;15.754;2022-09-02T04:28:29;2.97;;;2.10;;
13374;SDS011;6756;51.354;15.754;2022-09-02T04:32:30;2.97;;;2.20;;
13374;SDS011;6756;51.354;15.754;2022-09-02T04:36:31;3.47;;;2.30;;
13374;SDS011;6756;51.354;15.754;2022-09-02T04:40:34;3.07;;;2.53;;
13374;SDS011;6756;51.354;15.754;2022-09-02T04:44:35;2.67;;;2.27;;
13374;SDS011;6756;51.354;15.754;2022-09-02T04:48:36;2.97;;;2.53;;
13374;SDS011;6756;51.354;15.754;2022-09-02T04:52:37;2.50;;;2.10;;
13374;SDS011;6756;51.354;15.754;2022-09-02T04:56:38;2.93;;;2.33;;
13374;SDS011;6756;51.354;15.754;2022-09-02T05:00:39;3.47;;;2.20;;
13374;SDS011;6756;51.354;15.754;2022-09-02T05:04:41;2.77;;;2.20;;
13374;SDS011;6756;51.354;15.754;2022-09-02T05:08:42;2.60;;;1.90;;
13374;SDS011;6756;51.354;15.754;2022-09-02T05:12:47;2.87;;;2.27;;
13374;SDS011;6756;51.354;15.754;2022-09-02T05:16:47;6.10;;;1.97;;
13374;SDS011;6756;51.354;15.754;2022-09-02T05:20:52;2.80;;;2.30;;
13374;SDS011;6756;51.354;15.754;2022-09-02T05:24:54;2.30;;;2.10;;
13374;SDS011;6756;51.354;15.754;2022-09-02T05:28:55;2.93;;;2.03;;
13374;SDS011;6756;51.354;15.754;2022-09-02T05:32:56;2.90;;;2.10;;
13374;SDS011;6756;51.354;15.754;2022-09-02T05:36:57;2.80;;;1.73;;
13374;SDS011;6756;51.354;15.754;2022-09-02T05:40:58;5.57;;;2.43;;
13374;SDS011;6756;51.354;15.754;2022-09-02T05:45:07;4.73;;;2.30;;
13374;SDS011;6756;51.354;15.754;2022-09-02T05:49:09;3.67;;;3.37;;
13374;SDS011;6756;51.354;15.754;2022-09-02T05:53:17;7.33;;;6.63;;
13374;SDS011;6756;51.354;15.754;2022-09-02T05:57:17;17.10;;;14.33;;
13374;SDS011;6756;51.354;15.754;2022-09-02T06:01:18;7.97;;;5.03;;
13374;SDS011;6756;51.354;15.754;2022-09-02T06:05:20;5.90;;;3.47;;
13374;SDS011;6756;51.354;15.754;2022-09-02T06:09:21;5.20;;;3.33;;
13374;SDS011;6756;51.354;15.754;2022-09-02T06:13:23;3.80;;;3.10;;
13374;SDS011;6756;51.354;15.754;2022-09-02T06:17:23;3.07;;;2.53;;
13374;SDS011;6756;51.354;15.754;2022-09-02T06:21:24;6.33;;;3.00;;
13374;SDS011;6756;51.354;15.754;2022-09-02T06:25:25;4.73;;;2.27;;
13374;SDS011;6756;51.354;15.754;2022-09-02T06:29:26;2.70;;;2.00;;
13374;SDS011;6756;51.354;15.754;2022-09-02T06:33:27;3.50;;;2.10;;
13374;SDS011;6756;51.354;15.754;2022-09-02T06:37:28;2.10;;;1.80;;
13374;SDS011;6756;51.354;15.754;2022-09-02T06:41:30;3.17;;;2.20;;
13374;SDS011;6756;51.354;15.754;2022-09-02T06:45:32;6.87;;;2.53;;
13374;SDS011;6756;51.354;15.754;2022-09-02T06:49:39;4.63;;;2.37;;
13374;SDS011;6756;51.354;15.754;2022-09-02T06:53:40;2.43;;;1.70;;
13374;SDS011;6756;51.354;15.754;2022-09-02T06:57:41;3.10;;;2.20;;
13374;SDS011;6756;51.354;15.754;2022-09-02T07:01:42;3.27;;;1.83;;
13374;SDS011;6756;51.354;15.754;2022-09-02T07:05:44;2.40;;;1.83;;
13374;SDS011;6756;51.354;15.754;2022-09-02T07:09:44;2.57;;;1.53;;
13374;SDS011;6756;51.354;15.754;2022-09-02T07:13:45;4.37;;;1.60;;
13374;SDS011;6756;51.354;15.754;2022-09-02T07:17:46;1.93;;;1.40;;
13374;SDS011;6756;51.354;15.754;2022-09-02T07:21:48;5.20;;;1.50;;
13374;SDS011;6756;51.354;15.754;2022-09-02T07:25:49;3.40;;;1.50;;
13374;SDS011;6756;51.354;15.754;2022-09-02T07:29:50;2.50;;;1.40;;
13374;SDS011;6756;51.354;15.754;2022-09-02T07:33:51;2.87;;;1.40;;
13374;SDS011;6756;51.354;15.754;2022-09-02T07:37:57;2.20;;;1.40;;
13374;SDS011;6756;51.354;15.754;2022-09-02T07:41:58;3.23;;;1.53;;
13374;SDS011;6756;51.354;15.754;2022-09-02T07:46:00;4.33;;;1.87;;
13374;SDS011;6756;51.354;15.754;2022-09-02T07:50:02;14.20;;;7.30;;
13374;SDS011;6756;51.354;15.754;2022-09-02T07:54:04;3.03;;;1.20;;
13374;SDS011;6756;51.354;15.754;2022-09-02T07:58:06;4.50;;;0.97;;
13374;SDS011;6756;51.354;15.754;2022-09-02T08:02:09;2.33;;;0.80;;
13374;SDS011;6756;51.354;15.754;2022-09-02T08:06:11;1.50;;;0.93;;
13374;SDS011;6756;51.354;15.754;2022-09-02T08:10:12;2.40;;;0.93;;
13374;SDS011;6756;51.354;15.754;2022-09-02T08:14:16;3.30;;;0.70;;
13374;SDS011;6756;51.354;15.754;2022-09-02T08:18:23;1.67;;;0.93;;
13374;SDS011;6756;51.354;15.754;2022-09-02T08:22:32;1.17;;;0.77;;
13374;SDS011;6756;51.354;15.754;2022-09-02T08:26:34;2.40;;;0.80;;
13374;SDS011;6756;51.354;15.754;2022-09-02T08:30:37;1.10;;;0.60;;
13374;SDS011;6756;51.354;15.754;2022-09-02T08:34:39;1.80;;;0.77;;
13374;SDS011;6756;51.354;15.754;2022-09-02T08:38:40;3.33;;;1.00;;
13374;SDS011;6756;51.354;15.754;2022-09-02T08:42:48;2.30;;;1.00;;
13374;SDS011;6756;51.354;15.754;2022-09-02T08:46:53;2.80;;;0.67;;
13374;SDS011;6756;51.354;15.754;2022-09-02T08:51:02;2.50;;;0.50;;
13374;SDS011;6756;51.354;15.754;2022-09-02T08:55:09;0.57;;;0.37;;
13374;SDS011;6756;51.354;15.754;2022-09-02T08:59:21;1.50;;;0.83;;
13374;SDS011;6756;51.354;15.754;2022-09-02T09:21:00;1.43;;;0.60;;
13374;SDS011;6756;51.354;15.754;2022-09-02T09:25:04;1.03;;;0.53;;
13374;SDS011;6756;51.354;15.754;2022-09-02T09:29:10;1.57;;;0.60;;
13374;SDS011;6756;51.354;15.754;2022-09-02T09:33:13;0.90;;;0.57;;
13374;SDS011;6756;51.354;15.754;2022-09-02T09:37:30;0.80;;;0.40;;
13374;SDS011;6756;51.354;15.754;2022-09-02T09:41:48;1.83;;;0.67;;
13374;SDS011;6756;51.354;15.754;2022-09-02T09:45:50;1.17;;;0.60;;
13374;SDS011;6756;51.354;15.754;2022-09-02T09:49:52;2.07;;;0.40;;
13374;SDS011;6756;51.354;15.754;2022-09-02T09:54:14;0.87;;;0.37;;
13374;SDS011;6756;51.354;15.754;2022-09-02T09:58:16;1.47;;;0.60;;
13374;SDS011;6756;51.354;15.754;2022-09-02T10:02:19;0.97;;;0.50;;
13374;SDS011;6756;51.354;15.754;2022-09-02T10:06:24;1.57;;;0.60;;
13374;SDS011;6756;51.354;15.754;2022-09-02T10:10:33;1.37;;;0.60;;
13374;SDS011;6756;51.354;15.754;2022-09-02T10:18:39;0.80;;;0.40;;
13374;SDS011;6756;51.354;15.754;2022-09-02T10:27:14;1.70;;;0.47;;
13374;SDS011;6756;51.354;15.754;2022-09-02T10:35:51;0.80;;;0.43;;
13374;SDS011;6756;51.354;15.754;2022-09-02T10:40:25;0.83;;;0.40;;
13374;SDS011;6756;51.354;15.754;2022-09-02T10:45:03;0.90;;;0.40;;
13374;SDS011;6756;51.354;15.754;2022-09-02T10:58:09;0.83;;;0.50;;
13374;SDS011;6756;51.354;15.754;2022-09-02T11:02:40;2.20;;;0.67;;
13374;SDS011;6756;51.354;15.754;2022-09-02T11:06:52;5.17;;;0.73;;
13374;SDS011;6756;51.354;15.754;2022-09-02T11:15:13;0.73;;;0.37;;
13374;SDS011;6756;51.354;15.754;2022-09-02T11:27:39;0.70;;;0.40;;
13374;SDS011;6756;51.354;15.754;2022-09-02T11:36:01;1.13;;;0.50;;
13374;SDS011;6756;51.354;15.754;2022-09-02T11:40:06;0.67;;;0.30;;
13374;SDS011;6756;51.354;15.754;2022-09-02T11:44:45;3.37;;;0.60;;
13374;SDS011;6756;51.354;15.754;2022-09-02T11:53:41;1.33;;;0.50;;
13374;SDS011;6756;51.354;15.754;2022-09-02T11:57:54;2.07;;;0.60;;
13374;SDS011;6756;51.354;15.754;2022-09-02T12:01:59;0.60;;;0.20;;
13374;SDS011;6756;51.354;15.754;2022-09-02T12:06:08;2.03;;;0.40;;
13374;SDS011;6756;51.354;15.754;2022-09-02T12:10:46;0.90;;;0.40;;
13374;SDS011;6756;51.354;15.754;2022-09-02T12:24:08;2.97;;;0.40;;
13374;SDS011;6756;51.354;15.754;2022-09-02T12:28:08;0.40;;;0.20;;
13374;SDS011;6756;51.354;15.754;2022-09-02T12:36:49;1.20;;;0.63;;
13374;SDS011;6756;51.354;15.754;2022-09-02T12:40:54;2.43;;;0.40;;
13374;SDS011;6756;51.354;15.754;2022-09-02T12:45:08;0.70;;;0.30;;
13374;SDS011;6756;51.354;15.754;2022-09-02T12:53:48;1.23;;;0.50;;
13374;SDS011;6756;51.354;15.754;2022-09-02T12:57:51;0.40;;;0.30;;
13374;SDS011;6756;51.354;15.754;2022-09-02T13:15:42;1.63;;;0.40;;
13374;SDS011;6756;51.354;15.754;2022-09-02T13:19:53;0.80;;;0.30;;
13374;SDS011;6756;51.354;15.754;2022-09-02T13:33:09;1.00;;;0.23;;
13374;SDS011;6756;51.354;15.754;2022-09-02T13:37:27;2.13;;;0.50;;
13374;SDS011;6756;51.354;15.754;2022-09-02T13:41:30;2.17;;;0.50;;
13374;SDS011;6756;51.354;15.754;2022-09-02T13:45:32;2.17;;;0.43;;
13374;SDS011;6756;51.354;15.754;2022-09-02T13:49:35;2.20;;;0.30;;
13374;SDS011;6756;51.354;15.754;2022-09-02T13:53:44;1.23;;;0.40;;
13374;SDS011;6756;51.354;15.754;2022-09-02T13:58:00;0.40;;;0.20;;
13374;SDS011;6756;51.354;15.754;2022-09-02T14:06:29;0.97;;;0.50;;
13374;SDS011;6756;51.354;15.754;2022-09-02T14:10:35;0.53;;;0.30;;
13374;SDS011;6756;51.354;15.754;2022-09-02T14:14:38;2.50;;;0.40;;
13374;SDS011;6756;51.354;15.754;2022-09-02T14:19:01;2.13;;;0.60;;
13374;SDS011;6756;51.354;15.754;2022-09-02T14:23:04;1.67;;;0.50;;
13374;SDS011;6756;51.354;15.754;2022-09-02T14:27:10;1.10;;;0.23;;
13374;SDS011;6756;51.354;15.754;2022-09-02T14:31:25;2.40;;;0.53;;
13374;SDS011;6756;51.354;15.754;2022-09-02T14:35:29;0.40;;;0.20;;
13374;SDS011;6756;51.354;15.754;2022-09-02T14:39:30;1.10;;;0.30;;
13374;SDS011;6756;51.354;15.754;2022-09-02T14:47:59;0.40;;;0.30;;
13374;SDS011;6756;51.354;15.754;2022-09-02T14:52:02;0.60;;;0.40;;
13374;SDS011;6756;51.354;15.754;2022-09-02T14:56:14;0.77;;;0.40;;
13374;SDS011;6756;51.354;15.754;2022-09-02T15:01:01;0.77;;;0.40;;
13374;SDS011;6756;51.354;15.754;2022-09-02T15:05:03;1.37;;;0.83;;
13374;SDS011;6756;51.354;15.754;2022-09-02T15:09:09;0.93;;;0.60;;
13374;SDS011;6756;51.354;15.754;2022-09-02T15:13:13;1.03;;;0.50;;
13374;SDS011;6756;51.354;15.754;2022-09-02T15:17:25;0.93;;;0.50;;
13374;SDS011;6756;51.354;15.754;2022-09-02T15:21:30;4.40;;;0.87;;
13374;SDS011;6756;51.354;15.754;2022-09-02T15:25:31;1.27;;;0.50;;
13374;SDS011;6756;51.354;15.754;2022-09-02T15:29:33;2.00;;;0.70;;
13374;SDS011;6756;51.354;15.754;2022-09-02T15:33:34;0.43;;;0.23;;
13374;SDS011;6756;51.354;15.754;2022-09-02T15:37:35;0.73;;;0.30;;
13374;SDS011;6756;51.354;15.754;2022-09-02T15:41:37;1.40;;;0.37;;
13374;SDS011;6756;51.354;15.754;2022-09-02T15:45:47;1.07;;;0.50;;
13374;SDS011;6756;51.354;15.754;2022-09-02T15:49:48;1.53;;;0.90;;
13374;SDS011;6756;51.354;15.754;2022-09-02T15:53:57;2.20;;;1.70;;
13374;SDS011;6756;51.354;15.754;2022-09-02T15:58:01;2.83;;;1.53;;
13374;SDS011;6756;51.354;15.754;2022-09-02T16:02:02;1.10;;;0.70;;
13374;SDS011;6756;51.354;15.754;2022-09-02T16:06:04;4.03;;;1.63;;
13374;SDS011;6756;51.354;15.754;2022-09-02T16:10:07;1.30;;;1.00;;
13374;SDS011;6756;51.354;15.754;2022-09-02T16:14:08;1.67;;;0.70;;
13374;SDS011;6756;51.354;15.754;2022-09-02T16:18:10;6.10;;;5.43;;
13374;SDS011;6756;51.354;15.754;2022-09-02T16:22:11;2.73;;;2.30;;
13374;SDS011;6756;51.354;15.754;2022-09-02T16:30:22;3.03;;;1.10;;
13374;SDS011;6756;51.354;15.754;2022-09-02T16:34:23;1.57;;;1.13;;
13374;SDS011;6756;51.354;15.754;2022-09-02T16:38:24;1.03;;;0.80;;
13374;SDS011;6756;51.354;15.754;2022-09-02T16:42:24;1.07;;;0.67;;
13374;SDS011;6756;51.354;15.754;2022-09-02T16:46:26;1.93;;;1.60;;
13374;SDS011;6756;51.354;15.754;2022-09-02T16:50:30;2.33;;;1.90;;
13374;SDS011;6756;51.354;15.754;2022-09-02T16:54:34;1.43;;;0.90;;
13374;SDS011;6756;51.354;15.754;2022-09-02T16:58:34;1.10;;;0.60;;
13374;SDS011;6756;51.354;15.754;2022-09-02T17:02:35;2.33;;;0.90;;
13374;SDS011;6756;51.354;15.754;2022-09-02T17:06:36;1.53;;;0.73;;
13374;SDS011;6756;51.354;15.754;2022-09-02T17:10:37;2.10;;;0.90;;
13374;SDS011;6756;51.354;15.754;2022-09-02T17:14:38;1.77;;;1.17;;
13374;SDS011;6756;51.354;15.754;2022-09-02T17:18:39;2.90;;;1.10;;
13374;SDS011;6756;51.354;15.754;2022-09-02T17:22:39;2.27;;;1.33;;
13374;SDS011;6756;51.354;15.754;2022-09-02T17:26:41;2.67;;;1.33;;
13374;SDS011;6756;51.354;15.754;2022-09-02T17:30:45;1.70;;;1.00;;
13374;SDS011;6756;51.354;15.754;2022-09-02T17:34:47;3.50;;;2.17;;
13374;SDS011;6756;51.354;15.754;2022-09-02T17:38:55;4.13;;;2.23;;
13374;SDS011;6756;51.354;15.754;2022-09-02T17:43:04;4.53;;;1.50;;
13374;SDS011;6756;51.354;15.754;2022-09-02T17:51:10;1.73;;;1.30;;
13374;SDS011;6756;51.354;15.754;2022-09-02T17:55:11;3.07;;;2.20;;
13374;SDS011;6756;51.354;15.754;2022-09-02T17:59:19;3.17;;;2.40;;
13374;SDS011;6756;51.354;15.754;2022-09-02T18:12:15;4.07;;;1.30;;
13374;SDS011;6756;51.354;15.754;2022-09-02T18:16:19;2.83;;;1.40;;
13374;SDS011;6756;51.354;15.754;2022-09-02T18:20:41;2.00;;;1.37;;
13374;SDS011;6756;51.354;15.754;2022-09-02T18:24:58;1.97;;;0.67;;
13374;SDS011;6756;51.354;15.754;2022-09-02T18:33:43;0.90;;;0.40;;
13374;SDS011;6756;51.354;15.754;2022-09-02T18:46:48;2.57;;;1.20;;
13374;SDS011;6756;51.354;15.754;2022-09-02T18:51:03;5.70;;;1.30;;
13374;SDS011;6756;51.354;15.754;2022-09-02T18:55:15;1.00;;;0.73;;
13374;SDS011;6756;51.354;15.754;2022-09-02T18:59:19;1.33;;;0.83;;
13374;SDS011;6756;51.354;15.754;2022-09-02T19:03:34;1.57;;;1.00;;
13374;SDS011;6756;51.354;15.754;2022-09-02T19:07:36;1.80;;;1.17;;
13374;SDS011;6756;51.354;15.754;2022-09-02T19:11:56;1.93;;;1.30;;
13374;SDS011;6756;51.354;15.754;2022-09-02T19:16:01;2.80;;;1.40;;
13374;SDS011;6756;51.354;15.754;2022-09-02T19:20:03;1.87;;;0.97;;
13374;SDS011;6756;51.354;15.754;2022-09-02T19:24:10;2.20;;;1.30;;
13374;SDS011;6756;51.354;15.754;2022-09-02T19:28:15;3.97;;;1.20;;
13374;SDS011;6756;51.354;15.754;2022-09-02T19:32:21;1.63;;;0.90;;
13374;SDS011;6756;51.354;15.754;2022-09-02T19:36:26;3.33;;;1.00;;
13374;SDS011;6756;51.354;15.754;2022-09-02T19:40:30;1.97;;;1.23;;
13374;SDS011;6756;51.354;15.754;2022-09-02T19:44:32;1.60;;;1.00;;
13374;SDS011;6756;51.354;15.754;2022-09-02T19:48:33;1.60;;;1.10;;
13374;SDS011;6756;51.354;15.754;2022-09-02T19:52:37;1.80;;;0.80;;
13374;SDS011;6756;51.354;15.754;2022-09-02T19:56:43;1.67;;;1.10;;
13374;SDS011;6756;51.354;15.754;2022-09-02T20:00:44;2.33;;;1.20;;
13374;SDS011;6756;51.354;15.754;2022-09-02T20:04:46;2.30;;;1.47;;
13374;SDS011;6756;51.354;15.754;2022-09-02T20:08:47;3.63;;;2.00;;
13374;SDS011;6756;51.354;15.754;2022-09-02T20:12:48;4.73;;;2.10;;
13374;SDS011;6756;51.354;15.754;2022-09-02T20:16:52;2.93;;;1.70;;
13374;SDS011;6756;51.354;15.754;2022-09-02T20:20:57;2.50;;;1.67;;
13374;SDS011;6756;51.354;15.754;2022-09-02T20:24:59;5.77;;;2.10;;
13374;SDS011;6756;51.354;15.754;2022-09-02T20:52:03;2.13;;;1.40;;
13374;SDS011;6756;51.354;15.754;2022-09-02T20:56:27;2.20;;;1.30;;
13374;SDS011;6756;51.354;15.754;2022-09-02T21:05:03;1.87;;;1.20;;
13374;SDS011;6756;51.354;15.754;2022-09-02T21:09:29;2.10;;;1.33;;
13374;SDS011;6756;51.354;15.754;2022-09-02T21:13:33;3.00;;;1.80;;
13374;SDS011;6756;51.354;15.754;2022-09-02T21:22:28;1.70;;;1.20;;
13374;SDS011;6756;51.354;15.754;2022-09-02T21:26:48;2.40;;;1.27;;
13374;SDS011;6756;51.354;15.754;2022-09-02T21:31:20;1.20;;;1.07;;
13374;SDS011;6756;51.354;15.754;2022-09-02T21:35:39;1.87;;;1.20;;
13374;SDS011;6756;51.354;15.754;2022-09-02T21:39:43;3.23;;;1.37;;
13374;SDS011;6756;51.354;15.754;2022-09-02T21:43:57;2.40;;;1.07;;
13374;SDS011;6756;51.354;15.754;2022-09-02T21:48:21;2.47;;;1.43;;
13374;SDS011;6756;51.354;15.754;2022-09-02T22:00:42;1.37;;;1.00;;
13374;SDS011;6756;51.354;15.754;2022-09-02T22:09:25;1.27;;;1.17;;
13374;SDS011;6756;51.354;15.754;2022-09-02T22:13:29;2.60;;;1.40;;
13374;SDS011;6756;51.354;15.754;2022-09-02T22:17:37;1.87;;;1.20;;
13374;SDS011;6756;51.354;15.754;2022-09-02T22:21:51;1.80;;;1.27;;
13374;SDS011;6756;51.354;15.754;2022-09-02T22:26:00;1.33;;;1.20;;
13374;SDS011;6756;51.354;15.754;2022-09-02T22:30:25;4.23;;;1.53;;
13374;SDS011;6756;51.354;15.754;2022-09-02T22:34:27;1.50;;;1.20;;
13374;SDS011;6756;51.354;15.754;2022-09-02T22:38:36;2.60;;;1.53;;
13374;SDS011;6756;51.354;15.754;2022-09-02T22:42:46;1.50;;;1.20;;
13374;SDS011;6756;51.354;15.754;2022-09-02T22:46:57;2.27;;;1.40;;
13374;SDS011;6756;51.354;15.754;2022-09-02T22:51:25;2.03;;;1.40;;
13374;SDS011;6756;51.354;15.754;2022-09-02T23:00:09;1.83;;;1.53;;
13374;SDS011;6756;51.354;15.754;2022-09-02T23:08:48;5.63;;;1.70;;
13374;SDS011;6756;51.354;15.754;2022-09-02T23:12:54;1.63;;;1.33;;
13374;SDS011;6756;51.354;15.754;2022-09-02T23:17:07;2.23;;;1.23;;
13374;SDS011;6756;51.354;15.754;2022-09-02T23:30:07;2.27;;;1.57;;
13374;SDS011;6756;51.354;15.754;2022-09-02T23:43:44;2.10;;;1.27;;
